Προγνώσεις καιρού υψηλής ανάλυσης για την περιοχή λιμένα Αγγελοχωρίου, με εξειδικευμένη μετεωρολογική επιμέλεια από τον μετεωρολόγο Χρήστο Χατζούδη και τη WeatherDom. Τα δεδομένα προσφέρουν αναλυτική εικόνα των καιρικών συνθηκών ενός μοντέλου με ανάλυση 1.7 χλμ .
Σποτ: Agelochori - lat: 40.478717 long: 22.813508
Ενημέρωση πρόγνωσης: 04/09/2026 12:34
Ανατολή: 06:57 - Δύση: 19:58
Πρώτο φως: 05:58 - Τελευταίο φως: 20:57
04/09
Παρασκευή 4 Σεπτεμβρίου Ώρα Καιρός Θερμ. (°C) Υγρασία (%) Άνεμος (Knts) Ριπές (Knts) Διεύθ. 03:00 23° 79% 5 13
04:00 22° 81% 7 10
05:00 22° 75% 11 18
06:00 23° 59% 11 20
07:00 24° 48% 12 29
08:00 24° 45% 16 28
09:00 25° 42% 12 21
10:00 27° 39% 10 16
11:00 28° 38% 7 13
12:00 28° 40% 8 12
13:00 27° 54% 4 7
14:00 28° 57% 2 4
15:00 28° 64% 2 4
16:00 28° 62% 3 5
17:00 28° 73% 3 5
18:00 28° 71% 0 0
19:00 27° 66% 9 12
20:00 27° 68% 10 15
21:00 27° 67% 9 15
22:00 24° 69% 5 7
23:00 24° 69% 0 0
05/09
Σάββατο 5 Σεπτεμβρίου Ώρα Καιρός Θερμ. (°C) Υγρασία (%) Άνεμος (Knts) Ριπές (Knts) Διεύθ. 00:00 24° 70% 2 4
01:00 23° 83% 3 5
02:00 24° 62% 8 11
03:00 24° 62% 7 10
04:00 24° 50% 5 9
05:00 23° 47% 5 8
06:00 23° 45% 4 7
07:00 24° 44% 5 8
08:00 24° 42% 5 9
09:00 25° 41% 6 10
10:00 26° 42% 3 5
11:00 27° 42% 0 0
12:00 28° 43% 0 0
13:00 28° 45% 0 0
14:00 28° 47% 5 8
15:00 28° 49% 10 15
16:00 28° 51% 10 15
17:00 28° 52% 10 15
18:00 28° 54% 10 15
19:00 27° 58% 10 15
20:00 27° 61% 11 16
21:00 26° 65% 11 16
22:00 26° 65% 8 13
23:00 26° 64% 6 9
06/09
Κυριακή 6 Σεπτεμβρίου Ώρα Καιρός Θερμ. (°C) Υγρασία (%) Άνεμος (Knts) Ριπές (Knts) Διεύθ. 00:00 26° 64% 3 6
01:00 26° 64% 1 6
02:00 26° 63% 1 5
03:00 26° 62% 2 5
04:00 25° 60% 3 6
05:00 25° 58% 4 7
06:00 24° 56% 5 8
07:00 25° 53% 6 10
08:00 25° 51% 8 12
09:00 26° 48% 9 14
10:00 28° 45% 9 14
11:00 29° 41% 9 14
12:00 31° 38% 9 14
13:00 32° 37% 8 13
14:00 32° 37% 7 11
15:00 33° 36% 6 10
16:00 33° 38% 4 8
17:00 33° 40% 3 6
18:00 33° 42% 1 4
19:00 31° 46% 2 6
20:00 30° 51% 4 8
21:00 28° 55% 6 10
22:00 28° 56% 2 9
23:00 27° 57% 1 9
07/09
Δευτέρα 7 Σεπτεμβρίου Ώρα Καιρός Θερμ. (°C) Υγρασία (%) Άνεμος (Knts) Ριπές (Knts) Διεύθ. 00:00 27° 58% 5 8
01:00 27° 53% 8 13
02:00 26° 49% 11 19
03:00 26° 44% 14 24
04:00 25° 44% 12 20
05:00 25° 43% 9 15
06:00 24° 43% 7 11
07:00 24° 42% 6 10
08:00 25° 41% 5 8
09:00 25° 40% 4 7
10:00 25° 44% 1 8
11:00 26° 47% 4 10
12:00 26° 51% 7 11
13:00 26° 54% 9 14
14:00 27° 58% 11 16
15:00 27° 61% 13 19
16:00 27° 62% 13 19
17:00 26° 62% 14 20
18:00 26° 63% 14 20
19:00 26° 65% 13 19
20:00 26° 67% 13 19
21:00 26° 69% 12 18
22:00 26° 69% 8 13
23:00 25° 69% 5 9
08/09
Τρίτη 8 Σεπτεμβρίου Ώρα Καιρός Θερμ. (°C) Υγρασία (%) Άνεμος (Knts) Ριπές (Knts) Διεύθ. 00:00 25° 69% 1 4
01:00 25° 69% 2 5
02:00 25° 68% 2 6
03:00 25° 68% 3 7
04:00 25° 67% 3 7
05:00 24° 66% 2 6
06:00 24° 65% 2 6
07:00 24° 65% 3 6
08:00 24° 65% 3 7
09:00 24° 65% 4 7
10:00 24° 65% 6 9
11:00 24° 65% 7 12
12:00 24° 65% 9 14
13:00 25° 63% 9 14
14:00 25° 60% 10 15
15:00 26° 58% 10 15
16:00 26° 61% 11 17
17:00 25° 63% 13 18
18:00 25° 66% 14 20
19:00 25° 66% 13 19
20:00 25° 67% 13 18
21:00 25° 67% 12 17
22:00 25° 66% 11 16
23:00 25° 66% 9 14
09/09
Τετάρτη 9 Σεπτεμβρίου Ώρα Καιρός Θερμ. (°C) Υγρασία (%) Άνεμος (Knts) Ριπές (Knts) Διεύθ. 00:00 25° 65% 8 13
01:00 25° 64% 7 12
02:00 25° 63% 7 11
03:00 25° 62% 6 10
04:00 24° 65% 5 9
05:00 24° 68% 5 8
06:00 23° 71% 4 7
07:00 23° 70% 3 6
08:00 23° 70% 2 5
09:00 23° 69% 1 4
10:00 23° 67% 3 6
11:00 24° 65% 5 9
12:00 24° 63% 7 11
13:00 24° 62% 8 13
14:00 25° 62% 10 14
15:00 25° 61% 11 16
16:00 25° 63% 13 19
17:00 25° 65% 14 21
18:00 25° 67% 16 24
19:00 25° 68% 14 21
20:00 24° 68% 13 19
21:00 24° 69% 11 16
22:00 24° 68% 9 14
23:00 24° 68% 7 11
10/09
Πέμπτη 10 Σεπτεμβρίου Ώρα Καιρός Θερμ. (°C) Υγρασία (%) Άνεμος (Knts) Ριπές (Knts) Διεύθ. 00:00 24° 67% 5 9
01:00 24° 67% 3 7
02:00 23° 66% 1 6
03:00 23° 66% 1 4
04:00 23° 69% 1 4
05:00 22° 73% 1 4
06:00 22° 76% 1 4
07:00 22° 73% 1 4
08:00 23° 70% 1 5
09:00 23° 67% 1 5
10:00 24° 66% 3 8
11:00 24° 66% 6 11
12:00 25° 65% 9 14
13:00 25° 65% 9 14
14:00 24° 65% 10 15
15:00 24° 65% 10 15
16:00 24° 66% 12 17
17:00 25° 66% 13 20
18:00 25° 67% 15 22
19:00 25° 69% 14 21
20:00 24° 70% 14 20
21:00 24° 72% 13 19
22:00 24° 72% 10 15
23:00 24° 73% 7 11
11/09
Παρασκευή 11 Σεπτεμβρίου Ώρα Καιρός Θερμ. (°C) Υγρασία (%) Άνεμος (Knts) Ριπές (Knts) Διεύθ. 00:00 24° 73% 4 7
01:00 24° 73% 2 7
02:00 23° 74% 1 6
03:00 23° 74% 3 6
04:00 22° 77% 3 6
05:00 22° 80% 4 7
06:00 21° 83% 4 7
07:00 21° 81% 3 6
08:00 22° 78% 3 6
09:00 22° 76% 2 5
10:00 23° 75% 1 6
11:00 23° 73% 3 7
12:00 24° 72% 5 8
13:00 24° 70% 7 10
14:00 25° 69% 8 13
15:00 25° 67% 10 15
16:00 25° 67% 10 15
17:00 25° 66% 11 16
18:00 25° 66% 11 16
19:00 25° 68% 11 17
20:00 25° 71% 12 17
21:00 25° 73% 12 18
22:00 25° 74% 11 16
23:00 24° 75% 9 14
12/09
Σάββατο 12 Σεπτεμβρίου Ώρα Καιρός Θερμ. (°C) Υγρασία (%) Άνεμος (Knts) Ριπές (Knts) Διεύθ. 00:00 24° 76% 8 12
01:00 24° 75% 5 9
02:00 24° 74% 2 7
03:00 24° 73% 1 4
Developed by Rousis Dimitris - LinkedIn profile
Powered by: WeatherDom - Christos Chatzoudis
Πρόγνωση ανέμου — Agelochori Ενημέρωση: 04/09 12:34 Ωριαία Ανά 3 ώρες
Ένταση 0 → 40 kt · μαύρη γραμμή = μέσος άνεμος, χρωματιστός φάκελος = ριπές